Terminal Aerodrome Forecast
Issued by NWS

Home | Current Version | Previous Version | Text Only | Print | Product List | Glossary On
Versions: 1 2 3 4 5 6 7 8 9 10 11 12 13
000
FTUS45 KVEF 242300
TAFBIH
TAF
KBIH 242330Z 2500/2524 18011KT P6SM SCT100
     FM250400 35018G25KT P6SM SCT060 BKN080
     FM250700 35026G36KT P6SM VCSH SCT030 BKN050
     FM251200 35020G30KT P6SM FEW050 SCT070=

USA.gov is the U.S. government's official web portal to all federal, state and local government web resources and services.